Fort Macleod, Canada
Current Conditions -  °F | °C
As of 1:00 AM on Sunday 26 Oct 2014 (Local Time) from CYQL Reporting Station
Clear Clear  
Wind Chill: 37°   Ceiling: Unl
Heat Index: 43°   Visibility: 9mi
Dew Point: 36°   Wind: 12mph
Humidity: 76%   Direction: 230°SW
Pressure: 29.48"   Gusts: NA
Location:  49.73°N, 113.4°W
Report Text: CYQL 260700Z AUTO 23010KT 9SM CLR 06/02 A2948 RMK PRESRR SLP996 DENSITY ALT 3100FT
Loading
Personal Weather Stations






























Interactive Weather Map
Tropical Storm Tracking
New forecast layout! Learn more

10-Day Weather Forecast

Advertisements
Track Severe Weather on mobile